createdAt,value
2022-12-28T00:01:28.446Z,88.96
2022-12-28T00:03:55.810Z,88.39
2022-12-28T00:06:23.843Z,88.72
2022-12-28T00:08:52.799Z,88.08
2022-12-28T00:11:28.191Z,88.44
2022-12-28T00:13:59.369Z,88.29
2022-12-28T00:16:25.736Z,87.67
2022-12-28T00:18:52.156Z,88.00
2022-12-28T00:21:18.733Z,87.77
2022-12-28T00:23:45.153Z,87.24
2022-12-28T00:26:13.436Z,87.24
2022-12-28T00:28:40.325Z,86.81
2022-12-28T00:31:07.004Z,87.03
2022-12-28T00:33:33.473Z,86.68
2022-12-28T00:36:01.364Z,86.74
2022-12-28T00:38:29.131Z,86.57
2022-12-28T00:40:55.565Z,86.35
2022-12-28T00:43:21.956Z,86.43
2022-12-28T00:45:48.550Z,85.86
2022-12-28T00:48:15.844Z,86.18
2022-12-28T00:50:43.152Z,86.07
2022-12-28T00:53:10.125Z,86.05
2022-12-28T00:55:36.900Z,85.98
2022-12-28T00:58:03.957Z,85.80
2022-12-28T01:00:31.461Z,85.44
2022-12-28T01:02:57.895Z,85.50
2022-12-28T01:05:24.651Z,84.87
2022-12-28T01:07:51.104Z,85.13
2022-12-28T01:10:18.172Z,85.27
2022-12-28T01:12:44.883Z,84.96
2022-12-28T01:15:12.903Z,85.13
2022-12-28T01:17:39.664Z,85.18
2022-12-28T01:20:07.332Z,85.07
2022-12-28T01:22:33.733Z,85.24
2022-12-28T01:25:00.142Z,85.49
2022-12-28T01:27:26.582Z,85.67
2022-12-28T01:29:53.026Z,86.13
2022-12-28T01:32:19.430Z,85.92
2022-12-28T01:34:45.828Z,85.60
2022-12-28T01:37:12.294Z,85.76
2022-12-28T01:39:38.709Z,86.13
2022-12-28T01:42:05.157Z,85.67
2022-12-28T01:44:44.636Z,85.90
2022-12-28T01:47:14.561Z,85.86
2022-12-28T01:49:51.728Z,86.16
2022-12-28T01:52:26.391Z,86.10
2022-12-28T01:54:58.657Z,85.73
2022-12-28T01:57:27.728Z,86.71
2022-12-28T02:00:00.211Z,86.46
2022-12-28T02:02:26.799Z,86.49
2022-12-28T02:04:53.473Z,86.40
2022-12-28T02:07:30.237Z,86.88
2022-12-28T02:10:41.233Z,86.57
2022-12-28T02:12:43.128Z,86.12
2022-12-28T02:15:09.957Z,86.40
2022-12-28T02:17:36.473Z,86.58
2022-12-28T02:20:03.080Z,86.19
2022-12-28T02:22:51.819Z,85.77
2022-12-28T02:25:34.140Z,86.27
2022-12-28T02:28:37.968Z,86.32
2022-12-28T02:31:09.051Z,85.98
2022-12-28T02:33:41.455Z,85.79
2022-12-28T02:36:18.633Z,86.14
2022-12-28T02:38:53.265Z,85.50
2022-12-28T02:41:22.772Z,85.54
2022-12-28T02:43:49.332Z,85.71
2022-12-28T02:46:41.383Z,86.00
2022-12-28T02:49:41.159Z,85.83
2022-12-28T02:52:30.921Z,85.77
2022-12-28T02:55:38.029Z,85.61
2022-12-28T02:58:29.029Z,85.64
2022-12-28T03:01:17.160Z,85.65
2022-12-28T03:04:03.843Z,85.64
2022-12-28T03:07:13.806Z,85.49
2022-12-28T03:09:47.108Z,85.69
2022-12-28T03:12:41.217Z,85.98
2022-12-28T03:15:11.778Z,86.06
2022-12-28T03:17:58.866Z,86.05
2022-12-28T03:20:46.902Z,85.86
2022-12-28T03:23:34.349Z,86.35
2022-12-28T03:26:20.751Z,86.68
2022-12-28T03:29:06.358Z,86.13
2022-12-28T03:31:33.940Z,86.78
2022-12-28T03:34:07.038Z,86.64
2022-12-28T03:36:57.393Z,86.69
2022-12-28T03:39:35.540Z,86.80
2022-12-28T03:42:37.677Z,87.21
2022-12-28T03:45:46.312Z,87.38
2022-12-28T03:48:12.445Z,87.00
2022-12-28T03:50:41.530Z,87.40
2022-12-28T03:53:08.910Z,87.38
2022-12-28T03:55:37.845Z,87.23
2022-12-28T03:58:05.374Z,87.15
2022-12-28T04:00:31.969Z,87.23
2022-12-28T04:02:58.562Z,87.27
2022-12-28T04:05:25.067Z,87.40
2022-12-28T04:07:51.504Z,87.64
2022-12-28T04:10:17.939Z,87.66
2022-12-28T04:12:44.995Z,87.86
2022-12-28T04:15:11.533Z,87.36
2022-12-28T04:17:37.939Z,87.51
2022-12-28T04:20:05.197Z,87.53
2022-12-28T04:22:31.620Z,87.40
2022-12-28T04:24:58.037Z,87.57
2022-12-28T04:27:24.525Z,88.30
2022-12-28T04:29:50.974Z,88.09
2022-12-28T04:32:17.386Z,87.75
2022-12-28T04:34:48.366Z,88.00
2022-12-28T04:37:15.431Z,88.21
2022-12-28T04:39:56.386Z,87.93
2022-12-28T04:42:25.311Z,88.13
2022-12-28T04:44:51.752Z,87.97
2022-12-28T04:47:18.171Z,88.13
2022-12-28T04:49:44.734Z,88.65
2022-12-28T04:52:11.131Z,89.72
2022-12-28T04:54:37.555Z,90.74
2022-12-28T04:57:04.065Z,91.32
2022-12-28T04:59:30.551Z,92.00
2022-12-28T05:01:57.041Z,92.15
2022-12-28T05:04:23.528Z,91.90
2022-12-28T05:06:49.972Z,92.23
2022-12-28T05:09:17.650Z,92.97
2022-12-28T05:11:44.057Z,92.67
2022-12-28T05:14:10.443Z,92.77
2022-12-28T05:16:36.877Z,92.74
2022-12-28T05:19:03.331Z,93.02
2022-12-28T05:21:29.955Z,93.43
2022-12-28T05:23:57.052Z,93.66
2022-12-28T05:26:28.932Z,93.70
2022-12-28T05:28:56.206Z,93.97
2022-12-28T05:31:23.518Z,93.61
2022-12-28T05:33:50.300Z,93.59
2022-12-28T05:36:19.031Z,93.91
2022-12-28T05:38:45.676Z,94.55
2022-12-28T05:41:30.686Z,95.21
2022-12-28T05:43:58.747Z,95.37
2022-12-28T05:46:31.288Z,94.87
2022-12-28T05:48:58.053Z,95.29
2022-12-28T05:51:26.621Z,95.46
2022-12-28T05:53:53.101Z,95.96
2022-12-28T05:56:23.013Z,95.78
2022-12-28T05:59:01.363Z,95.38
2022-12-28T06:01:30.254Z,95.25
2022-12-28T06:04:08.437Z,95.63
2022-12-28T06:06:36.089Z,95.50
2022-12-28T06:09:02.748Z,96.25
2022-12-28T06:11:29.497Z,96.38
2022-12-28T06:13:57.389Z,96.26
2022-12-28T06:16:26.579Z,96.49
2022-12-28T06:18:53.313Z,96.14
2022-12-28T06:21:25.582Z,96.13
2022-12-28T06:23:53.509Z,96.60
2022-12-28T06:26:21.448Z,96.42
2022-12-28T06:28:48.311Z,96.71
2022-12-28T06:31:16.906Z,97.40
2022-12-28T06:33:43.711Z,96.93
2022-12-28T06:36:19.996Z,97.20
2022-12-28T06:38:48.384Z,97.69
2022-12-28T06:41:15.393Z,97.87
2022-12-28T06:43:43.225Z,97.73
2022-12-28T06:46:10.539Z,97.40
2022-12-28T06:48:37.001Z,97.20
2022-12-28T06:51:06.376Z,97.81
2022-12-28T06:53:35.652Z,97.40
2022-12-28T06:56:06.891Z,97.62
2022-12-28T06:58:33.668Z,96.96
2022-12-28T07:01:16.163Z,97.34
2022-12-28T07:03:43.454Z,97.02
2022-12-28T07:06:10.887Z,97.52
2022-12-28T07:08:37.464Z,96.87
2022-12-28T07:11:06.154Z,96.82
2022-12-28T07:13:33.303Z,96.96
2022-12-28T07:16:04.340Z,96.71
2022-12-28T07:18:31.290Z,96.71
2022-12-28T07:21:06.346Z,96.81
2022-12-28T07:23:33.823Z,97.67
2022-12-28T07:26:09.603Z,97.83
2022-12-28T07:28:40.595Z,98.12
2022-12-28T07:31:08.701Z,98.10
2022-12-28T07:33:36.106Z,98.27
2022-12-28T07:36:03.645Z,98.56
2022-12-28T07:38:30.045Z,98.66
2022-12-28T07:41:07.708Z,98.50
2022-12-28T07:43:34.417Z,98.53
2022-12-28T07:46:01.868Z,98.59
2022-12-28T07:48:32.067Z,98.82
2022-12-28T07:50:59.064Z,98.97
2022-12-28T07:53:25.470Z,98.55
2022-12-28T07:55:56.800Z,99.32
2022-12-28T07:58:23.335Z,99.27
2022-12-28T08:00:50.751Z,99.67
2022-12-28T08:03:18.217Z,99.55
2022-12-28T08:05:44.762Z,99.91
2022-12-28T08:08:11.254Z,99.69
2022-12-28T08:10:37.654Z,99.87
2022-12-28T08:13:04.128Z,99.91
2022-12-28T08:15:30.601Z,99.81
2022-12-28T08:17:57.035Z,100.00
2022-12-28T08:20:23.460Z,100.00
2022-12-28T08:22:49.897Z,100.00
2022-12-28T08:25:16.338Z,100.00
2022-12-28T08:27:42.742Z,100.00
2022-12-28T08:30:10.147Z,100.00
2022-12-28T08:32:36.541Z,100.00
2022-12-28T08:35:02.983Z,100.00
2022-12-28T08:37:29.372Z,100.00
2022-12-28T08:39:55.784Z,100.00
2022-12-28T08:42:22.189Z,100.00
2022-12-28T08:44:48.619Z,100.00
2022-12-28T08:47:15.093Z,100.00
2022-12-28T08:49:42.339Z,100.00
2022-12-28T08:52:08.742Z,100.00
2022-12-28T08:54:35.146Z,100.00
2022-12-28T08:57:01.526Z,100.00
2022-12-28T08:59:28.041Z,100.00
2022-12-28T09:01:54.622Z,100.00
2022-12-28T09:04:21.924Z,100.00
2022-12-28T09:06:48.958Z,100.00
2022-12-28T09:09:17.415Z,100.00
2022-12-28T09:11:44.065Z,100.00
2022-12-28T09:14:18.522Z,100.00
2022-12-28T09:16:48.870Z,100.00
2022-12-28T09:19:15.675Z,100.00
2022-12-28T09:21:42.595Z,100.00
2022-12-28T09:24:09.046Z,100.00
2022-12-28T09:26:37.748Z,100.00
2022-12-28T09:29:06.163Z,100.00
2022-12-28T09:31:36.970Z,100.00
2022-12-28T09:37:00.133Z,99.80
2022-12-28T09:39:26.674Z,99.41
2022-12-28T09:41:56.034Z,98.96
2022-12-28T09:44:37.618Z,99.11
2022-12-28T09:47:18.529Z,98.86
2022-12-28T09:50:06.793Z,98.93
2022-12-28T09:52:33.159Z,98.93
2022-12-28T09:55:06.242Z,98.46
2022-12-28T09:57:37.056Z,98.40
2022-12-28T10:00:04.891Z,98.12
2022-12-28T10:02:32.633Z,97.99
2022-12-28T10:04:59.313Z,98.18
2022-12-28T10:07:26.349Z,97.79
2022-12-28T10:09:52.822Z,97.97
2022-12-28T10:12:22.030Z,97.80
2022-12-28T10:14:48.734Z,97.46
2022-12-28T10:17:16.910Z,96.62
2022-12-28T10:19:47.128Z,96.65
2022-12-28T10:22:19.761Z,96.96
2022-12-28T10:24:46.576Z,96.55
2022-12-28T10:27:24.965Z,96.10
2022-12-28T10:29:52.636Z,95.56
2022-12-28T10:32:19.328Z,95.81
2022-12-28T10:35:00.963Z,95.73
2022-12-28T10:37:32.592Z,95.56
2022-12-28T10:40:01.409Z,95.36
2022-12-28T10:42:38.676Z,95.44
2022-12-28T10:45:07.863Z,95.23
2022-12-28T10:47:36.848Z,95.43
2022-12-28T10:52:58.509Z,94.27
2022-12-28T10:55:33.009Z,93.61
2022-12-28T10:58:29.599Z,92.95
2022-12-28T11:01:03.793Z,92.41
2022-12-28T11:03:35.236Z,91.99
2022-12-28T11:06:12.174Z,91.70
2022-12-28T11:08:40.878Z,91.76
2022-12-28T11:11:09.156Z,91.55
2022-12-28T11:13:36.801Z,91.56
2022-12-28T11:16:07.880Z,91.99
2022-12-28T11:18:37.935Z,91.30
2022-12-28T11:21:04.878Z,91.34
2022-12-28T11:23:33.107Z,91.40
2022-12-28T11:25:59.584Z,90.92
2022-12-28T11:28:25.980Z,90.65
2022-12-28T11:30:52.777Z,90.25
2022-12-28T11:33:34.426Z,89.65
2022-12-28T11:36:05.576Z,89.78
2022-12-28T11:38:44.635Z,90.06
2022-12-28T11:41:33.709Z,89.30
2022-12-28T11:44:07.203Z,89.48
2022-12-28T11:46:38.549Z,89.50
2022-12-28T11:49:27.951Z,89.29
2022-12-28T11:52:17.454Z,89.12
2022-12-28T11:55:05.124Z,89.47
2022-12-28T11:57:34.445Z,89.04
2022-12-28T12:00:22.780Z,89.08
2022-12-28T12:02:56.508Z,89.13
2022-12-28T12:05:38.559Z,89.59
2022-12-28T12:08:17.344Z,89.67
2022-12-28T12:10:44.768Z,89.25
2022-12-28T12:13:26.554Z,89.91
2022-12-28T12:15:55.322Z,89.77
2022-12-28T12:18:26.659Z,89.96
2022-12-28T12:21:02.330Z,90.33
2022-12-28T12:23:48.845Z,90.69
2022-12-28T12:26:32.839Z,90.56
2022-12-28T12:29:07.085Z,90.59
2022-12-28T12:31:56.623Z,90.47
2022-12-28T12:34:32.907Z,90.53
2022-12-28T12:37:30.054Z,91.28
2022-12-28T12:40:14.692Z,90.94
2022-12-28T12:43:08.925Z,91.24
2022-12-28T12:45:54.491Z,91.56
2022-12-28T12:48:32.832Z,91.73
2022-12-28T12:51:15.192Z,91.49
2022-12-28T12:53:51.576Z,92.34
2022-12-28T12:56:40.524Z,92.33
2022-12-28T12:59:35.009Z,92.56
2022-12-28T13:02:38.768Z,92.58
2022-12-28T13:05:06.399Z,93.07
2022-12-28T13:07:33.615Z,92.74
2022-12-28T13:10:02.718Z,93.19
2022-12-28T13:12:29.281Z,93.52
2022-12-28T13:15:00.948Z,93.73
2022-12-28T13:17:28.580Z,93.74
2022-12-28T13:20:19.603Z,93.63
2022-12-28T13:22:48.209Z,94.02
2022-12-28T13:25:31.200Z,94.02
2022-12-28T13:28:00.877Z,93.98
2022-12-28T13:30:29.138Z,94.06
2022-12-28T13:36:25.974Z,93.58
2022-12-28T13:39:06.215Z,92.94
2022-12-28T13:41:35.374Z,92.99
2022-12-28T13:44:13.296Z,92.40
2022-12-28T13:46:45.192Z,91.96
2022-12-28T13:49:12.663Z,91.47
2022-12-28T13:51:41.142Z,91.00
2022-12-28T13:54:08.737Z,90.68
2022-12-28T13:56:36.660Z,90.51
2022-12-28T13:59:10.751Z,90.57
2022-12-28T14:01:42.896Z,90.46
2022-12-28T14:07:18.703Z,90.04
2022-12-28T14:09:46.225Z,89.80
2022-12-28T14:12:13.723Z,89.91
2022-12-28T14:14:41.046Z,89.67
2022-12-28T14:17:08.122Z,89.66
2022-12-28T14:19:35.176Z,89.43
2022-12-28T14:22:02.179Z,89.75
2022-12-28T14:24:28.760Z,89.62
2022-12-28T14:26:59.769Z,89.48
2022-12-28T14:29:31.540Z,89.45
2022-12-28T14:31:59.608Z,89.20
2022-12-28T14:34:31.779Z,89.09
2022-12-28T14:36:58.904Z,89.22
2022-12-28T14:39:35.584Z,89.28
2022-12-28T14:42:15.151Z,88.85
2022-12-28T14:44:41.661Z,88.74
2022-12-28T14:47:37.432Z,88.88
2022-12-28T14:50:19.067Z,89.06
2022-12-28T14:52:47.613Z,88.92
2022-12-28T14:55:23.003Z,89.08
2022-12-28T14:57:52.865Z,89.30
2022-12-28T15:00:28.778Z,89.66
2022-12-28T15:02:55.713Z,89.46
2022-12-28T15:05:41.891Z,89.66
2022-12-28T15:08:09.228Z,89.78
2022-12-28T15:10:40.325Z,90.19
2022-12-28T15:13:06.903Z,89.65
2022-12-28T15:15:34.585Z,89.61
2022-12-28T15:18:01.356Z,89.78
2022-12-28T15:20:28.075Z,89.50
2022-12-28T15:22:54.754Z,89.68
2022-12-28T15:25:21.537Z,89.36
2022-12-28T15:27:52.383Z,89.31
2022-12-28T15:30:23.084Z,89.17
2022-12-28T15:32:54.004Z,89.04
2022-12-28T15:35:20.632Z,89.87
2022-12-28T15:37:47.116Z,89.13
2022-12-28T15:40:13.882Z,89.09
2022-12-28T15:42:44.353Z,89.10
2022-12-28T15:45:11.083Z,89.30
2022-12-28T15:47:37.657Z,89.08
2022-12-28T15:50:05.373Z,89.57
2022-12-28T15:52:32.375Z,89.45
2022-12-28T15:54:59.003Z,89.55
2022-12-28T15:57:26.128Z,89.04
2022-12-28T15:59:54.227Z,88.97
2022-12-28T16:02:21.475Z,89.01
2022-12-28T16:04:48.392Z,88.74
2022-12-28T16:07:15.373Z,88.56
2022-12-28T16:09:41.942Z,88.50
2022-12-28T16:12:08.471Z,88.23
2022-12-28T16:14:34.988Z,87.98
2022-12-28T16:17:01.565Z,88.09
2022-12-28T16:19:28.093Z,87.97
2022-12-28T16:21:54.677Z,87.97
2022-12-28T16:24:21.229Z,87.95
2022-12-28T16:26:47.825Z,87.50
2022-12-28T16:29:14.505Z,87.41
2022-12-28T16:31:41.210Z,87.01
2022-12-28T16:34:11.511Z,86.90
2022-12-28T16:36:38.510Z,86.79
2022-12-28T16:39:07.268Z,86.71
2022-12-28T16:41:37.404Z,86.24
2022-12-28T16:44:16.608Z,86.48
2022-12-28T16:46:43.300Z,86.45
2022-12-28T16:49:13.285Z,86.07
2022-12-28T16:51:41.823Z,86.08
2022-12-28T16:54:08.514Z,86.39
2022-12-28T16:56:35.201Z,86.27
2022-12-28T16:59:01.754Z,86.59
2022-12-28T17:01:28.447Z,86.92
2022-12-28T17:04:01.701Z,86.77
2022-12-28T17:06:30.095Z,87.22
2022-12-28T17:08:56.627Z,87.46
2022-12-28T17:11:23.178Z,87.09
2022-12-28T17:13:49.707Z,87.37
2022-12-28T17:16:16.321Z,87.86
2022-12-28T17:18:43.898Z,88.20
2022-12-28T17:21:11.675Z,88.71
2022-12-28T17:23:40.345Z,88.63
2022-12-28T17:26:08.123Z,89.12
2022-12-28T17:28:36.319Z,89.65
2022-12-28T17:31:11.314Z,89.91
2022-12-28T17:33:40.047Z,89.60
2022-12-28T17:36:07.850Z,89.27
2022-12-28T17:38:34.457Z,89.73
2022-12-28T17:41:07.134Z,90.36
2022-12-28T17:43:33.724Z,89.89
2022-12-28T17:46:03.690Z,90.20
2022-12-28T17:48:30.463Z,90.47
2022-12-28T17:50:59.030Z,90.96
2022-12-28T17:53:25.993Z,91.04
2022-12-28T17:55:52.557Z,91.35
2022-12-28T17:58:19.019Z,90.92
2022-12-28T18:00:45.683Z,91.55
2022-12-28T18:03:12.275Z,91.63
2022-12-28T18:05:38.841Z,91.31
2022-12-28T18:08:05.416Z,90.68
2022-12-28T18:10:31.982Z,90.68
2022-12-28T18:12:58.557Z,90.33
2022-12-28T18:15:29.842Z,90.05
2022-12-28T18:18:00.177Z,89.36
2022-12-28T18:20:26.871Z,89.27
2022-12-28T18:22:53.408Z,88.78
2022-12-28T18:25:20.303Z,88.87
2022-12-28T18:27:46.896Z,88.33
2022-12-28T18:30:13.758Z,87.46
2022-12-28T18:32:40.267Z,87.73
2022-12-28T18:35:07.623Z,87.73
2022-12-28T18:37:34.251Z,87.87
2022-12-28T18:40:00.773Z,88.00
2022-12-28T18:42:29.026Z,87.84
2022-12-28T18:44:55.643Z,88.42
2022-12-28T18:47:22.178Z,88.17
2022-12-28T18:49:48.717Z,88.27
2022-12-28T18:52:16.313Z,88.33
2022-12-28T18:54:42.961Z,88.35
2022-12-28T18:57:10.657Z,88.50
2022-12-28T18:59:37.163Z,88.77
2022-12-28T19:02:06.817Z,88.27
2022-12-28T19:04:33.752Z,88.49
2022-12-28T19:07:00.434Z,88.45
2022-12-28T19:09:26.962Z,88.37
2022-12-28T19:11:53.660Z,88.41
2022-12-28T19:14:21.282Z,88.44
2022-12-28T19:16:47.968Z,88.47
2022-12-28T19:19:16.946Z,88.07
2022-12-28T19:21:44.431Z,88.33
2022-12-28T19:24:14.595Z,88.26
2022-12-28T19:26:41.515Z,87.90
2022-12-28T19:29:08.187Z,88.11
2022-12-28T19:31:34.942Z,87.70
2022-12-28T19:34:01.790Z,87.88
2022-12-28T19:36:28.715Z,87.74
2022-12-28T19:38:56.059Z,87.79
2022-12-28T19:41:23.149Z,87.88
2022-12-28T19:43:49.788Z,87.69
2022-12-28T19:46:21.912Z,87.49
2022-12-28T19:48:52.943Z,87.18
2022-12-28T19:51:19.533Z,87.51
2022-12-28T19:53:46.038Z,87.07
2022-12-28T19:56:14.677Z,86.83
2022-12-28T19:58:43.527Z,86.85
2022-12-28T20:01:22.203Z,86.73
2022-12-28T20:03:49.094Z,86.81
2022-12-28T20:06:24.167Z,87.41
2022-12-28T20:08:58.335Z,87.13
2022-12-28T20:11:26.410Z,87.34
2022-12-28T20:13:57.872Z,86.98
2022-12-28T20:16:27.381Z,86.69
2022-12-28T20:18:55.623Z,86.82
2022-12-28T20:21:23.414Z,86.67
2022-12-28T20:23:51.088Z,86.78
2022-12-28T20:26:19.064Z,86.35
2022-12-28T20:28:46.104Z,86.86
2022-12-28T20:31:14.800Z,86.98
2022-12-28T20:33:42.084Z,86.49
2022-12-28T20:36:12.060Z,86.42
2022-12-28T20:38:38.606Z,86.59
2022-12-28T20:41:35.918Z,86.62
2022-12-28T20:44:08.378Z,87.02
2022-12-28T20:46:35.424Z,86.72
2022-12-28T20:49:02.373Z,86.87
2022-12-28T20:51:28.934Z,87.00
2022-12-28T20:53:55.463Z,86.76
2022-12-28T20:56:23.172Z,86.79
2022-12-28T20:58:50.045Z,86.60
2022-12-28T21:01:17.295Z,86.62
2022-12-28T21:03:45.372Z,86.62
2022-12-28T21:06:12.332Z,87.02
2022-12-28T21:08:38.953Z,87.11
2022-12-28T21:11:05.732Z,86.90
2022-12-28T21:13:33.344Z,87.51
2022-12-28T21:16:04.703Z,87.06
2022-12-28T21:18:32.457Z,87.33
2022-12-28T21:21:00.426Z,87.54
2022-12-28T21:23:29.002Z,87.78
2022-12-28T21:26:07.295Z,87.36
2022-12-28T21:28:34.518Z,87.14
2022-12-28T21:31:03.687Z,87.60
2022-12-28T21:33:30.848Z,87.77
2022-12-28T21:36:01.558Z,87.78
2022-12-28T21:38:30.263Z,88.26
2022-12-28T21:41:02.248Z,88.11
2022-12-28T21:43:30.187Z,87.98
2022-12-28T21:46:07.895Z,88.11
2022-12-28T21:48:36.868Z,88.22
2022-12-28T21:51:28.398Z,87.54
2022-12-28T21:53:55.356Z,87.87
2022-12-28T21:56:22.041Z,87.83
2022-12-28T21:58:49.693Z,87.66
2022-12-28T22:01:35.494Z,87.59
2022-12-28T22:04:20.708Z,87.67
2022-12-28T22:06:47.185Z,87.45
2022-12-28T22:09:32.303Z,87.71
2022-12-28T22:12:17.593Z,87.41
2022-12-28T22:14:44.095Z,87.42
2022-12-28T22:17:14.283Z,87.59
2022-12-28T22:19:41.224Z,87.58
2022-12-28T22:22:07.871Z,87.55
2022-12-28T22:24:34.337Z,87.78
2022-12-28T22:27:00.882Z,87.59
2022-12-28T22:29:27.424Z,87.53
2022-12-28T22:31:54.115Z,87.84
2022-12-28T22:34:20.704Z,88.31
2022-12-28T22:36:47.240Z,87.90
2022-12-28T22:39:13.802Z,88.15
2022-12-28T22:41:40.390Z,88.35
2022-12-28T22:44:06.909Z,88.50
2022-12-28T22:46:33.535Z,88.43
2022-12-28T22:49:01.148Z,89.00
2022-12-28T22:51:27.672Z,88.50
2022-12-28T22:53:54.270Z,89.06
2022-12-28T22:56:21.228Z,88.72
2022-12-28T22:58:48.287Z,89.29
2022-12-28T23:01:17.191Z,89.60
2022-12-28T23:03:45.516Z,89.84
2022-12-28T23:06:13.941Z,89.54
2022-12-28T23:08:40.666Z,89.84
2022-12-28T23:11:30.267Z,90.39
2022-12-28T23:14:20.431Z,90.51
2022-12-28T23:16:47.435Z,91.01
2022-12-28T23:19:33.348Z,91.31
2022-12-28T23:22:18.591Z,91.46
2022-12-28T23:25:03.767Z,91.48
2022-12-28T23:27:36.671Z,92.33
2022-12-28T23:30:08.292Z,92.88
2022-12-28T23:32:34.789Z,93.41
2022-12-28T23:35:02.316Z,93.66
2022-12-28T23:37:28.894Z,94.60
2022-12-28T23:39:55.476Z,94.83
2022-12-28T23:42:22.037Z,94.92
2022-12-28T23:44:49.722Z,94.97
2022-12-28T23:47:17.344Z,95.79
2022-12-28T23:49:43.804Z,96.41
2022-12-28T23:52:10.910Z,96.86
2022-12-28T23:54:37.453Z,96.66
2022-12-28T23:57:06.034Z,97.45
2022-12-28T23:59:32.672Z,97.23
